AMCK1: Grand River, Americus

                                SHEF ID:       AMCK1     NEOSHO R NR AMERICUS, KS
STATION TYPE:
Regulating: Stage = 27.50, Flow = 14160

PRECIP STAGE RIV-FLOW BAT-LOAD
in ft cfs volt
Ccp-Rev Ccp-Rev Ccp-Rev Ccp-Rev
(America/Chicago)
04/29 00:00 0.00 6.65 834 12.33
04/29 01:00 0.00 6.76 862 12.31
04/29 02:00 0.00 6.91 900 ----
04/29 03:00 0.00 7.09 947 12.27
04/29 04:00 0.00 7.23 984 12.27
04/29 05:00 0.00 7.34 1013 ----
04/29 06:00 0.00 7.41 1032 12.24
04/29 07:00 0.00 7.43 1037 12.24
04/29 08:00 0.00 7.43 1037 12.24
04/29 09:00 0.00 7.42 1034 12.25
04/29 10:00 0.00 7.41 1032 12.27
04/29 11:00 0.00 7.36 1018 12.35
04/29 12:00 0.00 7.31 1005 12.36
04/29 13:00 0.00 7.26 992 12.42
04/29 14:00 0.00 7.20 976 12.48
04/29 15:00 0.00 7.16 965 12.54
04/29 16:00 0.00 7.11 952 12.57
04/29 17:00 0.00 7.06 939 12.53
04/29 18:00 0.00 7.00 923 12.57
04/29 19:00 0.00 6.98 918 12.48
04/29 20:00 0.00 6.93 905 12.44
04/29 21:00 0.00 6.88 892 12.42
04/29 22:00 0.00 6.86 887 12.39
04/29 23:00 ---- 6.82 ---- 12.37
Data processed at Thu 30Apr2026 04:30 GMT

NOTICE: If you are parsing this page

Please convert to using our Data API. Starting early 2026 we will be migrating to: https://water.usace.army.mil with modern pages rendered in JavaScript. When this migration completes you will no longer be able to scrape this page! CWMSDataAPI (CDA)

Timeseries IDs (TSIDs)

TSIDs used from left to right in the data table
AMER.Precip-Inc.Total.1Hour.1Hour.Ccp-Rev
AMER.Stage.Inst.1Hour.0.Ccp-Rev
AMER.Flow.Inst.1Hour.0.Ccp-Rev
AMER.Volt-Battery Load.Inst.1Hour.0.Ccp-Rev

                            

All information presented herein is the property of the government of the United States of America and may be revised or deleted at any time without prior notice. Dissemination of this information without the expressed written consent of the Public Affairs Office, Tulsa District U.S. Army Corps of Engineers is strictly prohibited. These data are gathered electronically and, as presented, have NOT undergone any form of quality control. These data are NOT guaranteed to be valid or correct.